Time;durP1;ratioP1;P1;durP2;ratioP2;P2;SDS_P1;SDS_P2;PMS_P1;PMS_P2;Temp;Humidity;BMP_temperature;BMP_pressure;BME280_temperature;BME280_humidity;BME280_pressure;Samples;Min_cycle;Max_cycle;Signal;HPM_P1;HPM_P2
2023/09/22 00:01:32;;;;;;;2.70;0.77;;;20.40;57.70;;;;;;20557;6893;117581;-71
2023/09/22 00:03:59;;;;;;;1.35;0.60;;;20.00;58.30;;;;;;20570;6892;118949;-71
2023/09/22 00:06:24;;;;;;;2.80;0.53;;;19.90;58.30;;;;;;20560;6890;119754;-71
2023/09/22 00:08:50;;;;;;;1.43;0.90;;;19.40;60.00;;;;;;20566;6893;117996;-71
2023/09/22 00:11:17;;;;;;;1.70;0.77;;;19.40;59.30;;;;;;20345;6892;339175;-71
2023/09/22 00:13:42;;;;;;;2.08;0.80;;;19.60;59.80;;;;;;20570;6890;118330;-71
2023/09/22 00:16:09;;;;;;;0.93;0.90;;;19.80;59.00;;;;;;20352;6893;310094;-71
2023/09/22 00:18:33;;;;;;;1.77;0.80;;;19.70;58.90;;;;;;20520;6898;119431;-71
2023/09/22 00:20:59;;;;;;;1.62;0.65;;;19.70;59.00;;;;;;20538;6902;121360;-71
2023/09/22 00:23:25;;;;;;;2.00;0.80;;;19.50;59.40;;;;;;20564;6890;121333;-71
2023/09/22 00:25:50;;;;;;;1.63;1.00;;;19.30;59.90;;;;;;20356;6890;310182;-71
2023/09/22 00:28:16;;;;;;;1.00;0.90;;;19.50;59.70;;;;;;20542;6890;119728;-73
2023/09/22 00:30:42;;;;;;;1.13;0.90;;;19.50;59.40;;;;;;20138;6920;314753;-70
2023/09/22 00:33:08;;;;;;;1.20;1.00;;;19.90;57.50;;;;;;20324;6890;309952;-71
2023/09/22 00:35:33;;;;;;;1.03;0.80;;;19.90;57.50;;;;;;20567;6890;117562;-71
2023/09/22 00:38:00;;;;;;;2.20;1.10;;;19.80;57.70;;;;;;20328;6890;314115;-71
2023/09/22 00:40:24;;;;;;;1.57;1.00;;;19.80;57.10;;;;;;20505;6905;118075;-71
2023/09/22 00:42:50;;;;;;;1.23;0.90;;;19.70;57.50;;;;;;20282;6915;314768;-71
2023/09/22 00:45:17;;;;;;;0.90;0.80;;;19.70;57.70;;;;;;20474;6905;119846;-71
2023/09/22 00:47:41;;;;;;;1.33;1.10;;;19.60;58.00;;;;;;20319;6905;280146;-71
2023/09/22 00:50:07;;;;;;;1.10;0.80;;;19.60;58.00;;;;;;20324;6905;302390;-70
2023/09/22 00:52:32;;;;;;;1.57;1.10;;;19.80;58.00;;;;;;20296;6905;302319;-71
2023/09/22 00:54:59;;;;;;;0.70;0.70;;;19.70;57.20;;;;;;20533;6905;122479;-71
2023/09/22 00:57:24;;;;;;;0.90;0.83;;;19.70;57.00;;;;;;20530;6905;120120;-70
2023/09/22 00:59:50;;;;;;;0.93;0.90;;;19.40;57.60;;;;;;20319;6905;327019;-71
2023/09/22 01:02:15;;;;;;;1.45;0.77;;;19.40;57.60;;;;;;20525;6905;120750;-71
2023/09/22 01:04:41;;;;;;;1.43;0.67;;;19.30;57.80;;;;;;20528;6903;117648;-71
2023/09/22 01:07:07;;;;;;;1.43;1.10;;;19.10;58.50;;;;;;20317;6904;280999;-71
2023/09/22 01:09:32;;;;;;;1.77;0.93;;;19.20;57.90;;;;;;20319;6902;309454;-71
2023/09/22 01:11:58;;;;;;;1.40;1.00;;;19.50;57.50;;;;;;20263;6919;314657;-71
2023/09/22 01:14:24;;;;;;;2.47;0.80;;;19.60;57.30;;;;;;20504;6905;120282;-71
2023/09/22 01:16:51;;;;;;;2.40;0.87;;;19.50;57.20;;;;;;20535;6890;118073;-71
2023/09/22 01:19:16;;;;;;;1.40;1.10;;;19.30;58.00;;;;;;20326;6898;315248;-71
2023/09/22 01:21:41;;;;;;;2.90;1.10;;;19.40;57.90;;;;;;20308;6905;310267;-71
2023/09/22 01:24:07;;;;;;;1.52;1.10;;;19.70;57.10;;;;;;20300;6905;342839;-71
2023/09/22 01:26:32;;;;;;;5.75;0.90;;;19.90;56.70;;;;;;20502;6905;130971;-71
2023/09/22 01:28:58;;;;;;;1.65;1.02;;;19.70;56.90;;;;;;20521;6905;118984;-71
2023/09/22 01:31:23;;;;;;;0.87;0.80;;;19.40;57.70;;;;;;20542;6898;120505;-71
2023/09/22 01:33:49;;;;;;;0.77;0.77;;;19.20;58.50;;;;;;20522;6905;120095;-71
2023/09/22 01:36:15;;;;;;;1.58;1.10;;;19.00;58.80;;;;;;20312;6905;313871;-71
2023/09/22 01:38:40;;;;;;;2.43;0.87;;;19.20;58.20;;;;;;20454;6910;121382;-71
2023/09/22 01:41:11;;;;;;;1.73;1.00;;;19.20;58.10;;;;;;20287;6910;281657;-71
2023/09/22 01:43:35;;;;;;;0.93;0.80;;;19.30;57.30;;;;;;20515;6905;120757;-71
2023/09/22 01:46:00;;;;;;;1.70;1.08;;;19.30;57.50;;;;;;20337;6893;338966;-71
2023/09/22 01:48:25;;;;;;;1.70;1.00;;;19.40;57.10;;;;;;20537;6893;120757;-72
2023/09/22 01:50:51;;;;;;;3.37;1.10;;;19.30;57.50;;;;;;20508;6908;118834;-72
2023/09/22 01:56:28;;;;;;;1.13;0.70;;;18.80;58.40;;;;;;20117;6835;119957;-70
2023/09/22 01:59:05;;;;;;;1.20;1.10;;;18.80;58.10;;;;;;20386;6826;315198;-71
2023/09/22 02:01:40;;;;;;;1.67;1.00;;;18.80;58.10;;;;;;20471;6812;279440;-71
2023/09/22 02:04:16;;;;;;;2.30;1.00;;;19.20;57.20;;;;;;20445;6800;282778;-74
2023/09/22 02:06:51;;;;;;;1.63;0.80;;;19.50;56.70;;;;;;20710;6799;117327;-71
2023/09/22 02:09:27;;;;;;;0.60;0.60;;;19.30;57.10;;;;;;20681;6807;117755;-71
2023/09/22 02:12:03;;;;;;;1.35;0.90;;;19.00;57.70;;;;;;20496;6801;310865;-71
2023/09/22 02:14:39;;;;;;;0.70;0.70;;;19.00;57.30;;;;;;20564;6811;117978;-71
2023/09/22 02:17:15;;;;;;;0.70;0.70;;;19.00;57.30;;;;;;20497;6801;313457;-71
2023/09/22 02:19:50;;;;;;;1.80;1.00;;;19.20;56.80;;;;;;20678;6807;118321;-71
2023/09/22 02:22:26;;;;;;;1.40;1.00;;;19.10;57.10;;;;;;20442;6807;278724;-71
2023/09/22 02:25:02;;;;;;;1.10;1.00;;;19.30;56.60;;;;;;20328;6792;340371;-71
2023/09/22 02:27:37;;;;;;;2.00;1.00;;;19.50;56.00;;;;;;20464;6794;298675;-71
2023/09/22 02:30:14;;;;;;;1.80;0.67;;;19.70;56.00;;;;;;20687;6792;117330;-71
2023/09/22 02:32:49;;;;;;;0.83;0.83;;;19.40;56.40;;;;;;20707;6777;117183;-71
2023/09/22 02:35:24;;;;;;;2.70;1.10;;;19.10;57.30;;;;;;20578;6777;119589;-71
2023/09/22 02:38:03;;;;;;;0.83;0.83;;;18.80;58.10;;;;;;20691;6777;280649;-71
2023/09/22 02:40:36;;;;;;;0.90;0.90;;;18.70;58.80;;;;;;20603;6792;120153;-71
2023/09/22 02:43:11;;;;;;;0.70;0.70;;;18.60;59.10;;;;;;20651;6795;117818;-71
2023/09/22 02:45:47;;;;;;;1.93;1.00;;;18.50;59.30;;;;;;20272;6781;309552;-71
2023/09/22 02:48:22;;;;;;;3.00;0.93;;;18.80;58.20;;;;;;20592;6795;117457;-71
2023/09/22 02:50:59;;;;;;;0.90;0.90;;;19.10;57.20;;;;;;20437;6807;287617;-70
2023/09/22 02:53:34;;;;;;;2.20;0.80;;;19.00;57.10;;;;;;20645;6796;117266;-71
2023/09/22 02:56:13;;;;;;;0.80;0.80;;;19.00;57.10;;;;;;20673;6784;117331;-71
2023/09/22 02:58:46;;;;;;;0.90;0.90;;;18.70;58.30;;;;;;20605;6822;117351;-70
2023/09/22 03:01:22;;;;;;;0.90;0.90;;;18.70;58.30;;;;;;20684;6781;117814;-70
2023/09/22 03:03:57;;;;;;;1.30;0.73;;;18.50;58.40;;;;;;20655;6789;117732;-71
2023/09/22 03:06:33;;;;;;;1.07;0.80;;;18.40;58.50;;;;;;20693;6777;117203;-71
2023/09/22 03:09:10;;;;;;;1.20;1.10;;;18.30;58.80;;;;;;20555;6762;309077;-71
2023/09/22 03:11:47;;;;;;;2.40;0.93;;;18.60;57.40;;;;;;20772;6762;118023;-71
2023/09/22 03:14:22;;;;;;;0.70;0.70;;;18.60;57.50;;;;;;20685;6762;117484;-71
2023/09/22 03:16:58;;;;;;;2.27;0.90;;;18.50;57.90;;;;;;20530;6771;276879;-70
2023/09/22 03:19:33;;;;;;;4.63;0.90;;;18.70;57.50;;;;;;20713;6781;118406;-70
2023/09/22 03:22:10;;;;;;;0.83;0.83;;;18.60;57.60;;;;;;20745;6771;117193;-70
2023/09/22 03:24:49;;;;;;;1.58;1.10;;;18.60;58.30;;;;;;20394;6804;285043;-70
2023/09/22 03:27:23;;;;;;;2.10;1.30;;;18.60;58.30;;;;;;20768;6777;118350;-70
2023/09/22 03:29:58;;;;;;;3.87;1.10;;;18.40;59.60;;;;;;20780;6777;122307;-68
2023/09/22 03:32:35;;;;;;;2.47;1.33;;;18.40;58.90;;;;;;20551;6777;307926;-70
2023/09/22 03:35:09;;;;;;;1.90;1.00;;;18.60;58.90;;;;;;20525;6807;117680;-70
2023/09/22 03:37:45;;;;;;;2.28;1.20;;;18.60;58.80;;;;;;20465;6795;308558;-69
2023/09/22 03:40:31;;;;;;;1.27;1.00;;;18.80;58.70;;;;;;20663;6785;118179;-70
2023/09/22 03:42:56;;;;;;;2.00;1.10;;;18.70;58.70;;;;;;20506;6785;306802;-68
2023/09/22 03:45:32;;;;;;;1.50;1.30;;;19.10;57.40;;;;;;20306;6800;311217;-68
2023/09/22 03:48:08;;;;;;;1.00;1.00;;;19.10;57.40;;;;;;20674;6801;117385;-70
2023/09/22 03:50:43;;;;;;;0.80;0.80;;;18.90;57.60;;;;;;20632;6807;117979;-69
2023/09/22 03:53:19;;;;;;;3.40;1.10;;;18.60;58.30;;;;;;20611;6823;117928;-69
2023/09/22 03:55:55;;;;;;;1.40;0.80;;;18.30;58.90;;;;;;20468;6870;121732;-69
2023/09/22 03:58:30;;;;;;;1.93;1.00;;;18.10;59.60;;;;;;20413;6789;312327;-69
2023/09/22 04:01:06;;;;;;;1.20;0.90;;;18.40;59.70;;;;;;20711;6789;119981;-70
2023/09/22 04:03:41;;;;;;;1.30;1.10;;;18.40;59.40;;;;;;20424;6808;278569;-74
2023/09/22 04:06:18;;;;;;;1.40;1.30;;;18.70;58.50;;;;;;20519;6775;311333;-69
2023/09/22 04:08:53;;;;;;;1.10;1.10;;;19.00;57.70;;;;;;20754;6775;119422;-69
2023/09/22 04:11:28;;;;;;;1.10;1.10;;;18.90;57.60;;;;;;20502;6790;291886;-68
2023/09/22 04:14:04;;;;;;;1.10;1.00;;;19.00;57.50;;;;;;20392;6808;281712;-68
2023/09/22 04:16:40;;;;;;;1.85;1.20;;;19.50;56.60;;;;;;20462;6797;309078;-69
2023/09/22 04:19:19;;;;;;;2.63;0.97;;;19.40;56.50;;;;;;20658;6808;118585;-68
2023/09/22 04:21:52;;;;;;;1.37;1.27;;;19.30;57.00;;;;;;20439;6805;279444;-68
2023/09/22 04:24:32;;;;;;;0.80;0.80;;;19.20;57.20;;;;;;20590;6805;118701;-68
2023/09/22 04:27:09;;;;;;;3.37;0.93;;;19.00;57.40;;;;;;20737;6796;118637;-68
2023/09/22 04:29:41;;;;;;;1.10;1.10;;;18.80;58.20;;;;;;20670;6810;117357;-68
2023/09/22 04:32:18;;;;;;;1.60;1.00;;;18.50;58.80;;;;;;20671;6796;118416;-70
2023/09/22 04:34:53;;;;;;;2.37;0.93;;;18.20;59.50;;;;;;20649;6784;121483;-69
2023/09/22 04:37:29;;;;;;;1.47;0.80;;;18.20;59.50;;;;;;20733;6770;120906;-68
2023/09/22 04:40:23;;;;;;;1.00;0.95;;;18.30;58.80;;;;;;20535;6781;338503;-68
2023/09/22 04:42:48;;;;;;;1.00;1.00;;;18.30;58.80;;;;;;20625;6810;118484;-68
2023/09/22 04:45:23;;;;;;;1.43;1.10;;;18.60;58.10;;;;;;20278;6814;310932;-69
2023/09/22 04:47:59;;;;;;;2.77;0.97;;;18.60;58.00;;;;;;20729;6784;122013;-69
2023/09/22 04:50:35;;;;;;;1.47;1.00;;;18.30;58.70;;;;;;20667;6799;118044;-72
2023/09/22 04:53:11;;;;;;;2.00;0.80;;;18.30;58.70;;;;;;20580;6832;118656;-71
2023/09/22 04:55:48;;;;;;;3.08;1.10;;;18.20;59.30;;;;;;20253;6825;310125;-70
2023/09/22 04:58:22;;;;;;;1.57;1.10;;;18.40;58.40;;;;;;20726;6795;122147;-74
2023/09/22 05:01:01;;;;;;;0.93;0.93;;;18.40;58.30;;;;;;20631;6822;119583;-72
2023/09/22 05:03:34;;;;;;;1.73;0.90;;;18.20;58.70;;;;;;20630;6822;120076;-72
2023/09/22 05:06:09;;;;;;;1.75;1.20;;;18.10;59.30;;;;;;20446;6796;309014;-71
2023/09/22 05:08:44;;;;;;;1.30;1.27;;;18.30;58.80;;;;;;20720;6782;118189;-73
2023/09/22 05:11:20;;;;;;;1.30;1.20;;;18.30;58.70;;;;;;20463;6792;309015;-71
2023/09/22 05:13:56;;;;;;;1.07;1.07;;;18.50;58.00;;;;;;20616;6807;118753;-72
2023/09/22 05:16:35;;;;;;;1.50;1.30;;;18.50;58.20;;;;;;20419;6811;343652;-73
2023/09/22 05:19:10;;;;;;;0.80;0.80;;;18.60;58.10;;;;;;20699;6793;118338;-72
2023/09/22 05:21:44;;;;;;;1.60;1.30;;;18.60;58.00;;;;;;20487;6793;278908;-72
2023/09/22 05:24:20;;;;;;;1.65;1.55;;;18.70;57.40;;;;;;20373;6805;280276;-71
2023/09/22 05:26:56;;;;;;;2.70;1.20;;;19.00;56.70;;;;;;20445;6805;312228;-71
2023/09/22 05:29:31;;;;;;;0.90;0.90;;;19.30;55.60;;;;;;20639;6807;118404;-71
2023/09/22 05:32:10;;;;;;;1.67;1.37;;;18.70;57.10;;;;;;20644;6807;119744;-70
2023/09/22 05:34:46;;;;;;;1.47;1.37;;;18.60;57.00;;;;;;20300;6807;302297;-70
2023/09/22 05:37:21;;;;;;;1.80;1.30;;;18.80;57.30;;;;;;20435;6807;311969;-70
2023/09/22 05:39:58;;;;;;;3.17;1.13;;;18.90;57.00;;;;;;20671;6810;119392;-71
2023/09/22 05:42:34;;;;;;;2.43;1.27;;;18.90;56.90;;;;;;20688;6792;120784;-72
2023/09/22 05:45:09;;;;;;;1.23;1.07;;;18.70;57.70;;;;;;20527;6807;117634;-71
2023/09/22 05:47:45;;;;;;;2.33;1.20;;;18.40;58.30;;;;;;20412;6793;341463;-71
2023/09/22 05:50:23;;;;;;;1.17;0.83;;;18.60;57.60;;;;;;20625;6804;118569;-72
2023/09/22 05:52:56;;;;;;;1.20;1.10;;;18.60;57.70;;;;;;20659;6804;119794;-71
2023/09/22 05:55:33;;;;;;;1.17;1.08;;;18.60;57.40;;;;;;20333;6794;311495;-71
2023/09/22 05:58:11;;;;;;;1.93;0.87;;;18.60;57.40;;;;;;20693;6794;117312;-70
2023/09/22 06:00:45;;;;;;;1.05;0.90;;;18.60;57.50;;;;;;20434;6807;290606;-70
2023/09/22 06:03:21;;;;;;;2.30;1.00;;;18.80;57.30;;;;;;20535;6777;279526;-70
2023/09/22 06:05:56;;;;;;;0.98;0.98;;;19.10;56.20;;;;;;20356;6848;309853;-70
2023/09/22 06:08:32;;;;;;;1.40;1.00;;;19.50;55.00;;;;;;20475;6777;283469;-70
2023/09/22 06:11:08;;;;;;;1.57;0.90;;;19.50;55.00;;;;;;20431;6811;312680;-71
2023/09/22 06:13:43;;;;;;;0.83;0.83;;;19.70;54.80;;;;;;20632;6807;120127;-71
2023/09/22 06:16:19;;;;;;;2.00;1.00;;;19.40;55.40;;;;;;20460;6792;337365;-73
2023/09/22 06:18:55;;;;;;;1.00;0.80;;;19.60;55.10;;;;;;20447;6811;308628;-70
2023/09/22 06:21:32;;;;;;;1.23;0.80;;;19.50;55.00;;;;;;20642;6822;117396;-70
2023/09/22 06:24:07;;;;;;;1.85;0.90;;;19.40;55.40;;;;;;20410;6812;310239;-70
2023/09/22 06:26:44;;;;;;;2.20;0.90;;;19.20;55.90;;;;;;20685;6793;119836;-70
2023/09/22 06:29:19;;;;;;;1.67;1.20;;;19.20;55.90;;;;;;20499;6789;337458;-70
2023/09/22 06:31:55;;;;;;;1.40;1.00;;;19.30;56.20;;;;;;20486;6789;285971;-70
2023/09/22 06:34:31;;;;;;;0.93;0.67;;;19.50;55.30;;;;;;20635;6790;117535;-70
2023/09/22 06:37:06;;;;;;;0.90;0.90;;;19.30;55.60;;;;;;20688;6794;118794;-70
2023/09/22 06:39:42;;;;;;;2.03;1.07;;;19.00;56.20;;;;;;20515;6784;309207;-70
2023/09/22 06:42:17;;;;;;;1.62;1.10;;;19.10;56.60;;;;;;20466;6799;341493;-73
2023/09/22 06:44:53;;;;;;;1.80;1.10;;;19.30;55.70;;;;;;20382;6792;311059;-71
2023/09/22 06:47:28;;;;;;;2.50;1.17;;;19.50;55.30;;;;;;20486;6792;308280;-70
2023/09/22 06:50:09;;;;;;;1.60;1.43;;;19.60;55.60;;;;;;20728;6794;118748;-70
2023/09/22 06:52:45;;;;;;;3.67;0.80;;;19.40;56.00;;;;;;20731;6779;117264;-71
2023/09/22 06:55:20;;;;;;;2.40;1.07;;;19.00;56.70;;;;;;20581;6779;121569;-71
2023/09/22 06:57:56;;;;;;;0.90;0.90;;;18.80;57.50;;;;;;20781;6768;117163;-71
2023/09/22 07:00:32;;;;;;;1.23;0.97;;;18.80;57.30;;;;;;20503;6768;277332;-71
2023/09/22 07:03:08;;;;;;;0.90;0.88;;;18.80;57.30;;;;;;20489;6768;327761;-71
2023/09/22 07:05:43;;;;;;;0.67;0.67;;;19.20;56.20;;;;;;20540;6767;119554;-71
2023/09/22 07:08:19;;;;;;;1.10;1.00;;;19.30;56.50;;;;;;20498;6768;284468;-71
2023/09/22 07:11:05;;;;;;;0.93;0.93;;;19.30;56.40;;;;;;20522;6767;328555;-71
2023/09/22 07:13:40;;;;;;;1.30;1.10;;;19.60;55.30;;;;;;20461;6779;307442;-71
2023/09/22 07:16:18;;;;;;;1.47;1.00;;;19.90;54.70;;;;;;20578;6764;307082;-75
2023/09/22 07:18:53;;;;;;;2.20;1.10;;;19.90;54.70;;;;;;20537;6779;308277;-71
2023/09/22 07:21:28;;;;;;;1.17;0.90;;;20.10;54.50;;;;;;20705;6794;117569;-71
2023/09/22 07:24:04;;;;;;;1.07;0.80;;;19.80;55.10;;;;;;20703;6779;117127;-71
2023/09/22 07:26:39;;;;;;;1.90;0.97;;;19.40;56.00;;;;;;20722;6764;118317;-71
2023/09/22 07:29:17;;;;;;;0.97;0.70;;;19.10;56.90;;;;;;20713;6788;117728;-71
2023/09/22 07:31:51;;;;;;;1.20;1.10;;;19.00;57.70;;;;;;20500;6788;307545;-71
2023/09/22 07:34:26;;;;;;;4.30;1.20;;;19.30;57.30;;;;;;20437;6779;314472;-71
2023/09/22 07:37:02;;;;;;;1.55;1.15;;;19.70;57.20;;;;;;20531;6779;311876;-71
2023/09/22 07:39:37;;;;;;;1.70;1.07;;;20.00;57.00;;;;;;20697;6794;118015;-71
2023/09/22 07:42:13;;;;;;;1.53;0.83;;;19.90;57.00;;;;;;20760;6779;117217;-70
2023/09/22 07:44:49;;;;;;;1.53;1.40;;;19.70;57.00;;;;;;20362;6797;309940;-70
2023/09/22 07:47:25;;;;;;;2.17;1.50;;;19.70;56.60;;;;;;20527;6779;307856;-71
2023/09/22 07:50:03;;;;;;;5.37;1.50;;;20.00;56.50;;;;;;20745;6779;121198;-71
2023/09/22 07:52:36;;;;;;;3.17;1.67;;;19.90;56.80;;;;;;20462;6794;434936;-70
2023/09/22 07:55:14;;;;;;;1.00;1.00;;;19.90;56.80;;;;;;20572;6794;119253;-71
2023/09/22 07:57:51;;;;;;;1.50;1.23;;;19.50;57.70;;;;;;20748;6779;117556;-71
2023/09/22 08:00:26;;;;;;;1.90;1.10;;;19.50;57.70;;;;;;20728;6779;118404;-70
2023/09/22 08:03:03;;;;;;;2.67;1.40;;;19.30;58.20;;;;;;20748;6779;117333;-71
2023/09/22 08:05:39;;;;;;;2.75;1.52;;;19.40;58.50;;;;;;20343;6794;284588;-70
2023/09/22 08:08:14;;;;;;;1.40;1.30;;;19.40;58.50;;;;;;20672;6792;118560;-71
2023/09/22 08:10:49;;;;;;;1.57;1.27;;;19.40;58.20;;;;;;20625;6814;117911;-71
2023/09/22 08:13:25;;;;;;;1.10;1.05;;;19.30;58.50;;;;;;20449;6797;307863;-71
2023/09/22 08:16:04;;;;;;;1.70;1.00;;;19.60;58.50;;;;;;20715;6788;117330;-71
2023/09/22 08:18:40;;;;;;;1.60;1.30;;;19.80;58.30;;;;;;20462;6788;294801;-71
2023/09/22 08:21:13;;;;;;;0.83;0.80;;;19.80;58.20;;;;;;20712;6788;121431;-73
2023/09/22 08:23:48;;;;;;;0.80;0.80;;;19.80;58.20;;;;;;20692;6788;118322;-71
2023/09/22 08:26:24;;;;;;;2.60;1.37;;;19.70;58.70;;;;;;20718;6794;117649;-69
2023/09/22 08:29:00;;;;;;;1.60;1.10;;;19.60;59.20;;;;;;20583;6777;308127;-69
2023/09/22 08:31:35;;;;;;;1.47;1.20;;;19.90;59.00;;;;;;20491;6792;280525;-69
2023/09/22 08:34:33;;;;;;;1.50;1.20;;;20.40;57.50;;;;;;20438;6781;285125;-69
2023/09/22 08:37:09;;;;;;;1.03;1.00;;;20.80;57.30;;;;;;20711;6794;117301;-70
2023/09/22 08:39:44;;;;;;;2.07;1.20;;;20.90;57.50;;;;;;20494;6792;306208;-70
2023/09/22 08:42:20;;;;;;;1.90;1.40;;;21.10;56.40;;;;;;20511;6781;336846;-70
2023/09/22 08:44:59;;;;;;;1.33;1.00;;;21.40;56.10;;;;;;21189;6532;67396;-69
2023/09/22 08:47:24;;;;;;;1.10;0.90;;;21.40;56.30;;;;;;20339;6895;339479;-69
2023/09/22 08:49:50;;;;;;;2.70;1.00;;;21.50;54.10;;;;;;20585;6882;118745;-69
2023/09/22 08:52:15;;;;;;;1.30;0.88;;;21.40;54.70;;;;;;20386;6882;287858;-69
2023/09/22 08:54:41;;;;;;;1.87;1.12;;;21.50;54.90;;;;;;20318;6883;314523;-69
2023/09/22 08:57:06;;;;;;;2.53;1.23;;;21.70;55.30;;;;;;20339;6897;281853;-69
2023/09/22 08:59:32;;;;;;;1.20;1.10;;;21.90;55.30;;;;;;20347;6893;320039;-71
2023/09/22 09:01:58;;;;;;;1.23;1.13;;;22.00;54.10;;;;;;20550;6893;118634;-70
2023/09/22 09:04:33;;;;;;;0.95;0.80;;;21.80;54.60;;;;;;20537;6897;119146;-70
2023/09/22 09:06:58;;;;;;;3.70;1.10;;;21.40;55.40;;;;;;20552;6900;119126;-70
2023/09/22 09:09:24;;;;;;;1.50;1.20;;;21.10;56.00;;;;;;20587;6888;117635;-69
2023/09/22 09:12:00;;;;;;;3.03;1.30;;;20.90;56.50;;;;;;20384;6884;309372;-70
2023/09/22 09:14:28;;;;;;;1.98;1.30;;;21.00;56.10;;;;;;20366;6883;338920;-70
2023/09/22 09:16:51;;;;;;;2.00;1.23;;;21.30;55.70;;;;;;20362;6885;309972;-70
2023/09/22 09:19:16;;;;;;;2.43;1.10;;;21.50;55.00;;;;;;20592;6885;119138;-70
2023/09/22 09:22:04;;;;;;;1.97;0.90;;;21.00;56.00;;;;;;20592;6885;117386;-70
2023/09/22 09:24:30;;;;;;;1.43;1.10;;;20.90;55.90;;;;;;20531;6885;118697;-70
2023/09/22 09:26:55;;;;;;;1.30;1.20;;;20.60;56.50;;;;;;20341;6896;343755;-70
2023/09/22 09:29:28;;;;;;;1.30;1.20;;;20.80;56.90;;;;;;20346;6896;282883;-70
2023/09/22 09:31:53;;;;;;;2.20;1.20;;;21.10;55.80;;;;;;20345;6896;309814;-71
2023/09/22 09:34:18;;;;;;;2.40;1.27;;;21.30;55.90;;;;;;20332;6896;279736;-71
2023/09/22 09:36:44;;;;;;;1.50;1.07;;;21.40;56.00;;;;;;20344;6896;312028;-71
2023/09/22 09:39:13;;;;;;;2.03;1.27;;;21.60;55.50;;;;;;20566;6896;121420;-71
2023/09/22 09:41:42;;;;;;;1.33;1.10;;;21.30;55.90;;;;;;20343;6896;346919;-71
2023/09/22 09:44:09;;;;;;;1.95;1.10;;;21.30;56.40;;;;;;20336;6896;331574;-71
2023/09/22 09:46:33;;;;;;;1.70;1.37;;;21.50;56.10;;;;;;20313;6896;310255;-71
2023/09/22 09:48:58;;;;;;;1.62;1.05;;;21.70;56.30;;;;;;20338;6896;309663;-71
2023/09/22 09:51:24;;;;;;;1.57;1.10;;;21.80;55.90;;;;;;20547;6896;120207;-71
2023/09/22 09:53:53;;;;;;;1.40;1.20;;;21.70;56.20;;;;;;20342;6896;309214;-71
2023/09/22 09:56:18;;;;;;;2.70;1.10;;;21.60;55.40;;;;;;20512;6894;118726;-72
2023/09/22 09:58:48;;;;;;;0.93;0.77;;;21.40;55.90;;;;;;20559;6896;117638;-71
2023/09/22 10:01:13;;;;;;;3.37;1.07;;;20.90;57.20;;;;;;20551;6896;118670;-71
2023/09/22 10:03:42;;;;;;;1.80;1.03;;;20.90;57.20;;;;;;20337;6896;310159;-72
2023/09/22 10:06:11;;;;;;;1.93;1.00;;;21.10;57.20;;;;;;20545;6896;120925;-72
2023/09/22 10:08:39;;;;;;;2.87;1.30;;;21.20;57.50;;;;;;20332;6896;344433;-73
2023/09/22 10:11:11;;;;;;;1.80;1.37;;;21.50;57.40;;;;;;20563;6896;117574;-72
2023/09/22 10:13:38;;;;;;;0.93;0.93;;;21.60;57.40;;;;;;20354;6896;313806;-73
2023/09/22 10:16:04;;;;;;;1.10;1.10;;;21.80;56.00;;;;;;20343;6896;309631;-74
2023/09/22 10:18:46;;;;;;;1.13;1.00;;;22.20;55.30;;;;;;20528;6896;119252;-72
2023/09/22 10:21:29;;;;;;;1.13;0.90;;;22.20;55.60;;;;;;20555;6896;117985;-71
2023/09/22 10:24:18;;;;;;;1.30;0.73;;;22.00;56.20;;;;;;20552;6896;118075;-74
2023/09/22 10:26:56;;;;;;;0.40;0.40;;;21.80;56.40;;;;;;20551;6881;121986;-73
2023/09/22 10:29:32;;;;;;;0.80;0.77;;;21.70;56.40;;;;;;20325;6896;309724;-74
2023/09/22 10:32:18;;;;;;;0.60;0.60;;;21.80;55.30;;;;;;20437;6896;118087;-76
2023/09/22 10:34:55;;;;;;;0.77;0.70;;;21.90;55.20;;;;;;20307;6896;284105;-74
2023/09/22 10:37:18;;;;;;;0.50;0.50;;;22.10;52.70;;;;;;20290;6896;306876;-76
2023/09/22 10:40:08;;;;;;;1.40;0.70;;;22.30;51.10;;;;;;20316;6896;280273;-77
2023/09/22 10:42:32;;;;;;;1.00;0.60;;;22.60;51.80;;;;;;20295;6896;282399;-72
2023/09/22 10:44:58;;;;;;;1.67;0.60;;;22.80;50.60;;;;;;20329;6896;280020;-75
2023/09/22 10:47:24;;;;;;;1.30;0.70;;;23.10;49.40;;;;;;20331;6896;311565;-75
2023/09/22 10:49:49;;;;;;;0.60;0.60;;;23.00;49.20;;;;;;20548;6896;118051;-74
2023/09/22 10:52:17;;;;;;;0.73;0.73;;;22.80;47.80;;;;;;20341;6896;310317;-74
2023/09/22 10:54:42;;;;;;;0.87;0.73;;;22.80;47.70;;;;;;20531;6896;121248;-75
2023/09/22 10:57:09;;;;;;;1.30;0.80;;;22.70;48.90;;;;;;20342;6896;281054;-74
2023/09/22 10:59:35;;;;;;;0.37;0.37;;;22.70;48.80;;;;;;20556;6896;117626;-74
2023/09/22 11:01:59;;;;;;;0.93;0.73;;;22.70;49.80;;;;;;20555;6896;117995;-74
2023/09/22 11:04:42;;;;;;;1.03;0.80;;;22.40;50.20;;;;;;20328;6896;310845;-74
2023/09/22 11:07:10;;;;;;;1.12;1.00;;;22.50;49.60;;;;;;20357;6895;279151;-75
2023/09/22 11:09:34;;;;;;;0.83;0.67;;;22.50;48.00;;;;;;20555;6896;117511;-75
2023/09/22 11:12:00;;;;;;;1.60;0.50;;;22.50;48.00;;;;;;20561;6896;117933;-74
2023/09/22 11:14:25;;;;;;;1.20;0.50;;;22.20;48.90;;;;;;20323;6896;310356;-74
2023/09/22 11:16:51;;;;;;;0.82;0.70;;;22.30;47.90;;;;;;20344;6896;309993;-73
2023/09/22 11:19:18;;;;;;;0.87;0.67;;;22.50;46.40;;;;;;20560;6896;117593;-73
2023/09/22 11:21:47;;;;;;;0.50;0.50;;;22.50;46.40;;;;;;20558;6896;120577;-73
2023/09/22 11:24:11;;;;;;;1.40;1.00;;;22.40;46.80;;;;;;20334;6896;310078;-75
2023/09/22 11:26:41;;;;;;;1.47;0.80;;;22.40;47.60;;;;;;20533;6896;118887;-74
2023/09/22 11:29:06;;;;;;;1.07;0.87;;;22.30;47.50;;;;;;20342;6896;280577;-74
2023/09/22 11:31:32;;;;;;;1.17;0.70;;;22.50;47.40;;;;;;20551;6896;117522;-74
2023/09/22 11:34:01;;;;;;;1.73;0.80;;;22.50;48.20;;;;;;20338;6896;281377;-78
2023/09/22 11:36:28;;;;;;;1.07;0.97;;;22.60;46.50;;;;;;20313;6896;281063;-76
2023/09/22 11:38:54;;;;;;;7.73;2.13;;;23.20;44.90;;;;;;20339;6896;280346;-75
2023/09/22 11:41:22;;;;;;;0.90;0.77;;;23.10;45.90;;;;;;20554;6896;119710;-78
2023/09/22 11:43:48;;;;;;;0.80;0.80;;;23.10;45.90;;;;;;20568;6896;124017;-75
2023/09/22 11:46:22;;;;;;;0.70;0.70;;;22.90;46.80;;;;;;20560;6896;118642;-77
2023/09/22 11:49:02;;;;;;;1.90;0.83;;;22.80;46.20;;;;;;20341;6896;280002;-76
2023/09/22 11:51:45;;;;;;;1.47;0.80;;;22.80;46.20;;;;;;20548;6896;117491;-73
2023/09/22 11:54:09;;;;;;;0.95;0.90;;;22.90;46.70;;;;;;20335;6896;338719;-75
2023/09/22 11:56:35;;;;;;;1.70;1.00;;;23.10;44.50;;;;;;20283;6896;309615;-75
2023/09/22 11:59:07;;;;;;;0.90;0.90;;;23.30;43.70;;;;;;20536;6896;119400;-75
2023/09/22 12:01:32;;;;;;;2.20;0.97;;;23.20;45.00;;;;;;20554;6896;117531;-75
2023/09/22 12:03:58;;;;;;;3.27;1.00;;;23.00;45.80;;;;;;20340;6896;311140;-75
2023/09/22 12:06:24;;;;;;;3.40;1.10;;;23.30;43.50;;;;;;20328;6896;339411;-75
2023/09/22 12:08:50;;;;;;;1.58;1.00;;;23.30;42.90;;;;;;20343;6896;309340;-76
2023/09/22 12:11:15;;;;;;;1.53;1.07;;;23.40;43.50;;;;;;20360;6896;311150;-73
2023/09/22 12:13:43;;;;;;;3.97;0.90;;;23.60;42.70;;;;;;20551;6896;117920;-76
2023/09/22 12:16:08;;;;;;;0.87;0.67;;;23.40;43.40;;;;;;20519;6896;117935;-80
2023/09/22 12:18:34;;;;;;;0.97;0.97;;;23.00;42.50;;;;;;20299;6894;287431;-77
2023/09/22 12:20:59;;;;;;;1.20;0.90;;;23.00;42.50;;;;;;20347;6896;281764;-75
2023/09/22 12:23:26;;;;;;;2.03;1.10;;;23.30;41.70;;;;;;20334;6896;281443;-76
2023/09/22 12:25:52;;;;;;;1.60;1.03;;;23.40;42.00;;;;;;20553;6896;117902;-74
2023/09/22 12:28:17;;;;;;;1.37;1.00;;;23.30;43.10;;;;;;20317;6896;341737;-75
2023/09/22 12:30:43;;;;;;;1.25;0.98;;;23.30;43.10;;;;;;20555;6896;117815;-75
2023/09/22 12:33:09;;;;;;;1.17;1.07;;;23.30;44.00;;;;;;20557;6896;119982;-74
2023/09/22 12:35:34;;;;;;;1.90;1.13;;;23.10;44.30;;;;;;20347;6896;283372;-74
2023/09/22 12:38:00;;;;;;;2.50;1.10;;;23.30;42.20;;;;;;20339;6896;313788;-75
2023/09/22 12:40:26;;;;;;;1.58;0.98;;;23.60;41.90;;;;;;20327;6896;282371;-75
2023/09/22 12:42:52;;;;;;;1.90;1.05;;;23.90;41.70;;;;;;20335;6896;309668;-75
2023/09/22 12:45:17;;;;;;;1.98;1.05;;;24.10;41.30;;;;;;20335;6896;310660;-75
2023/09/22 12:47:42;;;;;;;1.70;1.23;;;24.20;40.30;;;;;;20340;6896;314145;-74
2023/09/22 12:50:13;;;;;;;2.13;0.73;;;24.20;40.00;;;;;;20545;6896;118364;-74
2023/09/22 12:52:40;;;;;;;2.17;1.17;;;24.00;41.00;;;;;;20312;6896;279842;-74
2023/09/22 12:55:06;;;;;;;1.03;0.90;;;23.90;39.60;;;;;;20486;6896;122175;-74
2023/09/22 12:57:31;;;;;;;1.58;1.00;;;23.60;40.70;;;;;;20325;6896;310547;-75
2023/09/22 12:59:57;;;;;;;2.60;1.07;;;23.60;40.40;;;;;;20337;6896;280089;-74
2023/09/22 13:02:25;;;;;;;1.47;1.00;;;23.80;40.60;;;;;;20297;6896;309661;-75